»·PEaware :: N550EM KLGB-L70

N550EM :: KLGB-L70

FLIGHT INFORMATION

Flight Status: Arrived
Operator: Privately registered:
United States
More flights under this callsign
Pilot: Keaton B. (19667)
Aircraft: PIPER PA-28R-201 ARROW
(P28R)
More flights by this aircraft type
Origin: KLGB Long Beach
United States
Destination: L70 Agua Dulce
United States
More flights between these airports :: More routes between these airports
Route: +
File this flight plan on PilotEdge
Remarks:
Altitude:
(Current/Filed)
0ft
Speed:
(Current/Filed)
0kts
Departed: 31-Aug-18 03:53 PM
Arrived: 31-Aug-18 04:34 PM
Distance/Time
Traveled:
42nm/0:41
Distance/Time
To Go:
Arrived

Flight Plot

Page will automatically refresh every two minutes.

Flight plan parsing failed; only flown route is shown


Map Options




Map Legend


Flown Route
Filed Route
Departure Airport
Arrival Airport
Navaid (VOR, NDB)
Fix

Horizontal Profiles

Position Reports

Time Latitude Longitude Heading Altitude Ground
Speed
31-Aug-18 15:40 33.812112 -118.150842 94 38ft 0kts
31-Aug-18 15:41 33.812112 -118.150842 94 38ft 0kts
31-Aug-18 15:42 33.812112 -118.150842 94 38ft 0kts
31-Aug-18 15:44 33.812112 -118.150842 94 38ft 0kts
31-Aug-18 15:45 33.812112 -118.150842 94 38ft 0kts
31-Aug-18 15:46 33.812112 -118.150842 94 38ft 0kts
31-Aug-18 15:47 33.812112 -118.150842 94 38ft 0kts
31-Aug-18 15:48 33.812002 -118.150062 105 36ft 15kts
31-Aug-18 15:49 33.812970 -118.148925 63 36ft 4kts
31-Aug-18 15:50 33.813122 -118.148339 74 36ft 0kts
31-Aug-18 15:51 33.813122 -118.148339 74 36ft 0kts
31-Aug-18 15:52 33.813122 -118.148338 74 36ft 0kts
31-Aug-18 15:53 33.813122 -118.148339 74 36ft 0kts
31-Aug-18 15:54 33.813122 -118.148339 74 36ft 0kts
31-Aug-18 15:55 33.814172 -118.158501 267 293ft 81kts
31-Aug-18 15:56 33.807920 -118.171504 140 1386ft 90kts
31-Aug-18 15:57 33.814593 -118.147026 44 2184ft 124kts
31-Aug-18 15:57 33.823614 -118.137771 36 2310ft 137kts
31-Aug-18 15:58 33.847881 -118.118823 20 3120ft 128kts
31-Aug-18 16:00 33.881184 -118.106191 21 3573ft 130kts
31-Aug-18 16:00 33.889232 -118.079410 99 3309ft 135kts
31-Aug-18 16:02 33.879383 -118.036354 116 2501ft 126kts
31-Aug-18 16:02 33.888333 -118.010511 33 2323ft 134kts
31-Aug-18 16:03 33.912946 -118.005256 352 2507ft 139kts
31-Aug-18 16:04 33.948426 -118.000542 23 2535ft 145kts
31-Aug-18 16:05 33.978412 -117.979449 43 2901ft 123kts
31-Aug-18 16:06 34.007561 -117.961082 330 2721ft 135kts
31-Aug-18 16:07 34.028805 -117.995824 295 2527ft 136kts
31-Aug-18 16:08 34.042666 -118.034058 287 2572ft 132kts
31-Aug-18 16:09 34.057261 -118.073247 289 2531ft 132kts
31-Aug-18 16:10 34.067302 -118.112143 286 2695ft 126kts
31-Aug-18 16:11 34.086422 -118.141577 328 2936ft 134kts
31-Aug-18 16:12 34.116601 -118.153005 340 3353ft 117kts
31-Aug-18 16:13 34.148660 -118.157803 19 4100ft 122kts
31-Aug-18 16:14 34.175800 -118.139356 45 5194ft 106kts
31-Aug-18 16:15 34.190704 -118.108531 57 6127ft 111kts
31-Aug-18 16:16 34.212464 -118.083086 13 7027ft 111kts
31-Aug-18 16:17 34.241604 -118.077175 354 7939ft 104kts
31-Aug-18 16:18 34.274478 -118.079772 345 8276ft 128kts
31-Aug-18 16:19 34.309585 -118.089172 336 8463ft 129kts
31-Aug-18 16:20 34.343701 -118.106626 327 8234ft 137kts
31-Aug-18 16:21 34.377151 -118.130914 323 7701ft 129kts
31-Aug-18 16:22 34.408138 -118.153198 328 7217ft 129kts
31-Aug-18 16:23 34.431437 -118.184745 294 6621ft 122kts
31-Aug-18 16:24 34.448731 -118.221166 285 6065ft 130kts
31-Aug-18 16:25 34.457078 -118.259436 280 6134ft 104kts
31-Aug-18 16:26 34.469829 -118.295417 322 5337ft 139kts
31-Aug-18 16:27 34.504815 -118.313933 316 4409ft 127kts
31-Aug-18 16:28 34.510048 -118.342760 224 3893ft 102kts
31-Aug-18 16:29 34.493764 -118.349488 167 3508ft 89kts
31-Aug-18 16:30 34.497207 -118.323516 51 2700ft 81kts
31-Aug-18 16:31 34.511475 -118.298485 357 3417ft 97kts
31-Aug-18 16:32 34.506638 -118.325845 238 3636ft 98kts
31-Aug-18 16:33 34.489576 -118.342555 139 3167ft 93kts
31-Aug-18 16:34 34.501582 -118.316223 52 2606ft 80kts
31-Aug-18 16:35 34.504539 -118.310713 110 2648ft 7kts

Navigation Log

Ident Type
Flight plan parsing failed, navigation log unavailable